JZA7947 CYDF-CYYT
Flight info
| Callsign | JZA7947 |
|---|---|
| Flight time | N/A |
| Altitude | 31000 |
| Route | YDF DCT GAURA |
| Aircraft | CRJ9/M-SDFGIRWY/S |
Departure
| Time | N/A |
|---|---|
| Airport | Deer Lake Airport (CYDF) |
Arrival
| Time | 2026-04-22 16:50 |
|---|---|
| Airport | St. John's International Airport (CYYT) |
| Time | Latitude | Longitude | Altitude | Speed | Heading |
|---|---|---|---|---|---|
| 2026-04-22 16:17 | 48.15759 | -53.77604 | 28827 ft | 338 kts | 126° |
| 2026-04-22 16:17 | 48.14696 | -53.74441 | 28378 ft | 350 kts | 125° |
| 2026-04-22 16:17 | 48.13581 | -53.71132 | 27929 ft | 362 kts | 124° |
| 2026-04-22 16:18 | 48.12431 | -53.67713 | 27479 ft | 373 kts | 124° |
| 2026-04-22 16:18 | 48.11247 | -53.64198 | 27013 ft | 384 kts | 124° |
| 2026-04-22 16:18 | 48.10027 | -53.60575 | 26533 ft | 394 kts | 124° |
| 2026-04-22 16:18 | 48.08778 | -53.56878 | 26056 ft | 403 kts | 123° |
| 2026-04-22 16:19 | 48.07503 | -53.53109 | 25528 ft | 409 kts | 123° |
| 2026-04-22 16:19 | 48.06203 | -53.49276 | 25036 ft | 416 kts | 122° |
| 2026-04-22 16:19 | 48.04883 | -53.45387 | 24542 ft | 421 kts | 122° |
| 2026-04-22 16:19 | 48.03563 | -53.41486 | 24057 ft | 422 kts | 122° |
| 2026-04-22 16:20 | 48.02246 | -53.37618 | 23577 ft | 423 kts | 121° |
| 2026-04-22 16:20 | 48.00911 | -53.33694 | 23011 ft | 419 kts | 122° |
| 2026-04-22 16:20 | 47.99631 | -53.29925 | 22446 ft | 398 kts | 122° |
| 2026-04-22 16:20 | 47.98404 | -53.26312 | 21907 ft | 381 kts | 122° |
| 2026-04-22 16:21 | 47.97229 | -53.22862 | 21402 ft | 366 kts | 122° |
| 2026-04-22 16:21 | 47.96091 | -53.19538 | 20918 ft | 354 kts | 122° |
| 2026-04-22 16:21 | 47.94984 | -53.16316 | 20471 ft | 343 kts | 122° |
| 2026-04-22 16:21 | 47.93908 | -53.13183 | 20022 ft | 334 kts | 122° |
| 2026-04-22 16:22 | 47.91842 | -53.07166 | 19208 ft | 319 kts | 122° |
| 2026-04-22 16:22 | 47.90835 | -53.04242 | 18820 ft | 314 kts | 122° |
| 2026-04-22 16:22 | 47.89848 | -53.01381 | 18442 ft | 309 kts | 122° |
| 2026-04-22 16:23 | 47.87915 | -52.95776 | 17644 ft | 299 kts | 123° |
| 2026-04-22 16:23 | 47.86972 | -52.93033 | 17250 ft | 295 kts | 123° |
| 2026-04-22 16:23 | 47.86034 | -52.90317 | 16862 ft | 292 kts | 123° |
| 2026-04-22 16:24 | 47.85113 | -52.87653 | 16486 ft | 288 kts | 123° |
| 2026-04-22 16:24 | 47.83296 | -52.82404 | 15727 ft | 282 kts | 124° |
| 2026-04-22 16:24 | 47.82404 | -52.79837 | 15380 ft | 279 kts | 124° |
| 2026-04-22 16:25 | 47.81518 | -52.77285 | 15033 ft | 275 kts | 124° |
| 2026-04-22 16:25 | 47.79786 | -52.72310 | 14354 ft | 270 kts | 124° |
| 2026-04-22 16:25 | 47.78928 | -52.69846 | 14032 ft | 267 kts | 124° |
| 2026-04-22 16:26 | 47.77961 | -52.67520 | 13547 ft | 261 kts | 140° |
| 2026-04-22 16:26 | 47.76385 | -52.66369 | 13056 ft | 257 kts | 173° |
| 2026-04-22 16:26 | 47.74646 | -52.67000 | 12606 ft | 270 kts | 206° |
| 2026-04-22 16:26 | 47.73195 | -52.68842 | 12162 ft | 277 kts | 215° |
| 2026-04-22 16:27 | 47.71844 | -52.70902 | 11681 ft | 280 kts | 219° |
| 2026-04-22 16:27 | 47.70580 | -52.73125 | 11226 ft | 284 kts | 224° |
| 2026-04-22 16:27 | 47.69822 | -52.75944 | 10747 ft | 312 kts | 255° |
| 2026-04-22 16:27 | 47.69886 | -52.79225 | 10263 ft | 322 kts | 265° |
| 2026-04-22 16:28 | 47.70073 | -52.82552 | 9758 ft | 322 kts | 265° |
| 2026-04-22 16:28 | 47.70182 | -52.85854 | 9181 ft | 318 kts | 261° |
| 2026-04-22 16:28 | 47.70156 | -52.89083 | 8624 ft | 315 kts | 259° |
| 2026-04-22 16:28 | 47.70053 | -52.92312 | 8086 ft | 311 kts | 256° |
| 2026-04-22 16:29 | 47.69872 | -52.95496 | 7515 ft | 306 kts | 252° |
| 2026-04-22 16:29 | 47.69139 | -52.98271 | 6939 ft | 272 kts | 222° |
| 2026-04-22 16:29 | 47.67730 | -52.99816 | 6468 ft | 239 kts | 197° |
| 2026-04-22 16:29 | 47.66264 | -53.00837 | 6013 ft | 233 kts | 206° |
| 2026-04-22 16:30 | 47.65448 | -53.01880 | 5647 ft | 234 kts | 214° |
| 2026-04-22 16:30 | 47.63822 | -53.03907 | 4971 ft | 219 kts | 204° |
| 2026-04-22 16:30 | 47.62460 | -53.04346 | 4581 ft | 195 kts | 165° |
| 2026-04-22 16:30 | 47.61445 | -53.03131 | 4281 ft | 193 kts | 127° |
| 2026-04-22 16:31 | 47.60800 | -53.01419 | 3967 ft | 187 kts | 126° |
| 2026-04-22 16:31 | 47.60351 | -52.99638 | 3703 ft | 184 kts | 109° |
| 2026-04-22 16:31 | 47.60188 | -52.97799 | 3468 ft | 181 kts | 97° |
| 2026-04-22 16:31 | 47.60582 | -52.96017 | 3240 ft | 186 kts | 75° |
| 2026-04-22 16:32 | 47.61110 | -52.94299 | 2922 ft | 180 kts | 74° |
| 2026-04-22 16:32 | 47.61604 | -52.92640 | 2645 ft | 172 kts | 74° |
| 2026-04-22 16:32 | 47.62051 | -52.91032 | 2373 ft | 164 kts | 73° |
| 2026-04-22 16:32 | 47.62424 | -52.89481 | 2118 ft | 155 kts | 79° |
| 2026-04-22 16:33 | 47.62471 | -52.88029 | 1949 ft | 129 kts | 89° |
| 2026-04-22 16:33 | 47.62370 | -52.86797 | 1753 ft | 114 kts | 94° |
| 2026-04-22 16:33 | 47.62211 | -52.85596 | 1609 ft | 129 kts | 94° |
| 2026-04-22 16:33 | 47.61984 | -52.84232 | 1498 ft | 141 kts | 96° |
| 2026-04-22 16:34 | 47.61888 | -52.83628 | 1411 ft | 144 kts | 97° |
| 2026-04-22 16:34 | 47.61679 | -52.82148 | 1206 ft | 149 kts | 96° |
| 2026-04-22 16:34 | 47.61607 | -52.80754 | 994 ft | 123 kts | 78° |
| 2026-04-22 16:34 | 47.61700 | -52.79482 | 813 ft | 135 kts | 77° |
| 2026-04-22 16:35 | 47.61832 | -52.78108 | 791 ft | 134 kts | 60° |
| 2026-04-22 16:35 | 47.62321 | -52.77060 | 680 ft | 119 kts | 64° |
| 2026-04-22 16:35 | 47.62527 | -52.75818 | 963 ft | 147 kts | 75° |
| 2026-04-22 16:35 | 47.62622 | -52.74007 | 1256 ft | 193 kts | 86° |
| 2026-04-22 16:36 | 47.62621 | -52.72093 | 2394 ft | 177 kts | 97° |
| 2026-04-22 16:36 | 47.62662 | -52.70148 | 2525 ft | 204 kts | 95° |
| 2026-04-22 16:36 | 47.62707 | -52.67921 | 2496 ft | 224 kts | 94° |
| 2026-04-22 16:36 | 47.62738 | -52.65569 | 2369 ft | 230 kts | 97° |
| 2026-04-22 16:37 | 47.62807 | -52.63186 | 2234 ft | 231 kts | 95° |
| 2026-04-22 16:37 | 47.62989 | -52.60783 | 2336 ft | 248 kts | 80° |
| 2026-04-22 16:37 | 47.64055 | -52.58562 | 2413 ft | 285 kts | 47° |
| 2026-04-22 16:37 | 47.65755 | -52.57087 | 2418 ft | 282 kts | 19° |
| 2026-04-22 16:38 | 47.67733 | -52.57064 | 2416 ft | 297 kts | 344° |
| 2026-04-22 16:38 | 47.69507 | -52.58522 | 2441 ft | 298 kts | 313° |
| 2026-04-22 16:38 | 47.70757 | -52.60884 | 2458 ft | 280 kts | 302° |
| 2026-04-22 16:38 | 47.71842 | -52.63245 | 2349 ft | 287 kts | 300° |
| 2026-04-22 16:39 | 47.72692 | -52.65988 | 2224 ft | 294 kts | 283° |
| 2026-04-22 16:39 | 47.73192 | -52.68879 | 2110 ft | 282 kts | 276° |
| 2026-04-22 16:39 | 47.73424 | -52.71717 | 2055 ft | 272 kts | 272° |
| 2026-04-22 16:39 | 47.73578 | -52.74478 | 2026 ft | 263 kts | 271° |
| 2026-04-22 16:40 | 47.73678 | -52.77214 | 2035 ft | 271 kts | 266° |
| 2026-04-22 16:40 | 47.73617 | -52.80072 | 2010 ft | 283 kts | 264° |
| 2026-04-22 16:40 | 47.73383 | -52.85784 | 2002 ft | 280 kts | 262° |
| 2026-04-22 16:41 | 47.73233 | -52.88659 | 2014 ft | 286 kts | 262° |
| 2026-04-22 16:41 | 47.73075 | -52.91683 | 2006 ft | 293 kts | 262° |
| 2026-04-22 16:41 | 47.72922 | -52.94687 | 2027 ft | 297 kts | 263° |
| 2026-04-22 16:41 | 47.72814 | -52.96763 | 2014 ft | 300 kts | 263° |
| 2026-04-22 16:42 | 47.72630 | -53.00207 | 2024 ft | 299 kts | 263° |
| 2026-04-22 16:42 | 47.72422 | -53.03163 | 2008 ft | 276 kts | 255° |
| 2026-04-22 16:42 | 47.71544 | -53.05473 | 1986 ft | 251 kts | 219° |
| 2026-04-22 16:42 | 47.70560 | -53.06274 | 1989 ft | 237 kts | 197° |
| 2026-04-22 16:43 | 47.69112 | -53.07287 | 1986 ft | 222 kts | 203° |
| 2026-04-22 16:43 | 47.67788 | -53.08307 | 1985 ft | 206 kts | 200° |
| 2026-04-22 16:43 | 47.66476 | -53.08541 | 1914 ft | 184 kts | 153° |
| 2026-04-22 16:43 | 47.65378 | -53.07469 | 2016 ft | 196 kts | 139° |
| 2026-04-22 16:44 | 47.64272 | -53.06254 | 2071 ft | 198 kts | 136° |
| 2026-04-22 16:44 | 47.63243 | -53.04951 | 2073 ft | 191 kts | 133° |
| 2026-04-22 16:44 | 47.62332 | -53.03575 | 2064 ft | 182 kts | 126° |
| 2026-04-22 16:44 | 47.61581 | -53.02124 | 2028 ft | 172 kts | 117° |
| 2026-04-22 16:45 | 47.61373 | -53.00502 | 2018 ft | 160 kts | 85° |
| 2026-04-22 16:45 | 47.61412 | -52.98822 | 2048 ft | 161 kts | 88° |
| 2026-04-22 16:45 | 47.61448 | -52.97211 | 2064 ft | 149 kts | 88° |
| 2026-04-22 16:45 | 47.61488 | -52.95770 | 2046 ft | 137 kts | 86° |
| 2026-04-22 16:46 | 47.61548 | -52.94334 | 2039 ft | 142 kts | 86° |
| 2026-04-22 16:46 | 47.61614 | -52.92876 | 2024 ft | 140 kts | 86° |
| 2026-04-22 16:46 | 47.61685 | -52.91456 | 2024 ft | 136 kts | 86° |
| 2026-04-22 16:46 | 47.61746 | -52.90066 | 1959 ft | 134 kts | 86° |
| 2026-04-22 16:47 | 47.61801 | -52.88708 | 1938 ft | 130 kts | 86° |
| 2026-04-22 16:47 | 47.61864 | -52.87353 | 1927 ft | 133 kts | 85° |
| 2026-04-22 16:47 | 47.61912 | -52.85974 | 1651 ft | 130 kts | 84° |
| 2026-04-22 16:47 | 47.61966 | -52.84717 | 1538 ft | 114 kts | 79° |
| 2026-04-22 16:48 | 47.62041 | -52.83521 | 1367 ft | 119 kts | 78° |
| 2026-04-22 16:48 | 47.62111 | -52.82278 | 1223 ft | 126 kts | 79° |
| 2026-04-22 16:48 | 47.62183 | -52.81010 | 986 ft | 119 kts | 80° |
| 2026-04-22 16:48 | 47.62240 | -52.79785 | 817 ft | 119 kts | 79° |
| 2026-04-22 16:49 | 47.62328 | -52.78514 | 702 ft | 132 kts | 81° |
| 2026-04-22 16:49 | 47.62361 | -52.77193 | 549 ft | 123 kts | 82° |
| 2026-04-22 16:49 | 47.62422 | -52.76018 | 482 ft | 97 kts | 85° |
| 2026-04-22 16:49 | 47.62457 | -52.75201 | 484 ft | 65 kts | 86° |
| 2026-04-22 16:50 | 47.62481 | -52.74748 | 484 ft | 32 kts | 85° |
| 2026-04-22 16:50 | 47.62493 | -52.74433 | 475 ft | 31 kts | 92° |
| 2026-04-22 16:50 | 47.62446 | -52.74149 | 471 ft | 32 kts | 115° |
| 2026-04-22 16:50 | 47.62280 | -52.73951 | 474 ft | 31 kts | 163° |